sensor_id;sensor_type;location;lat;lon;timestamp;P1;durP1;ratioP1;P2;durP2;ratioP2
70814;SDS011;58428;49.478;10.986;2023-01-01T00:00:50;94.20;;;51.47;;
70814;SDS011;58428;49.478;10.986;2023-01-01T00:03:16;75.70;;;44.08;;
70814;SDS011;58428;49.478;10.986;2023-01-01T00:05:42;68.70;;;39.63;;
70814;SDS011;58428;49.478;10.986;2023-01-01T00:08:09;65.90;;;38.63;;
70814;SDS011;58428;49.478;10.986;2023-01-01T00:10:36;64.63;;;38.00;;
70814;SDS011;58428;49.478;10.986;2023-01-01T00:13:03;59.92;;;35.15;;
70814;SDS011;58428;49.478;10.986;2023-01-01T00:15:29;86.15;;;46.65;;
70814;SDS011;58428;49.478;10.986;2023-01-01T00:17:55;69.97;;;41.92;;
70814;SDS011;58428;49.478;10.986;2023-01-01T00:20:21;63.22;;;36.85;;
70814;SDS011;58428;49.478;10.986;2023-01-01T00:22:48;55.10;;;32.97;;
70814;SDS011;58428;49.478;10.986;2023-01-01T00:25:14;51.58;;;30.95;;
70814;SDS011;58428;49.478;10.986;2023-01-01T00:27:42;49.85;;;29.33;;
70814;SDS011;58428;49.478;10.986;2023-01-01T00:30:08;48.22;;;27.83;;
70814;SDS011;58428;49.478;10.986;2023-01-01T00:32:34;42.50;;;25.15;;
70814;SDS011;58428;49.478;10.986;2023-01-01T00:37:26;36.78;;;21.95;;
70814;SDS011;58428;49.478;10.986;2023-01-01T00:39:58;34.85;;;22.45;;
70814;SDS011;58428;49.478;10.986;2023-01-01T00:42:23;32.15;;;20.35;;
70814;SDS011;58428;49.478;10.986;2023-01-01T00:44:50;32.38;;;19.52;;
70814;SDS011;58428;49.478;10.986;2023-01-01T00:47:15;30.02;;;18.38;;
70814;SDS011;58428;49.478;10.986;2023-01-01T00:49:41;31.65;;;18.83;;
70814;SDS011;58428;49.478;10.986;2023-01-01T00:52:06;30.70;;;18.63;;
70814;SDS011;58428;49.478;10.986;2023-01-01T00:54:32;29.50;;;17.77;;
70814;SDS011;58428;49.478;10.986;2023-01-01T00:56:59;32.75;;;20.42;;
70814;SDS011;58428;49.478;10.986;2023-01-01T00:59:28;34.03;;;20.13;;
70814;SDS011;58428;49.478;10.986;2023-01-01T01:01:54;29.92;;;17.38;;
70814;SDS011;58428;49.478;10.986;2023-01-01T01:04:19;27.02;;;16.58;;
70814;SDS011;58428;49.478;10.986;2023-01-01T01:06:46;33.88;;;19.60;;
70814;SDS011;58428;49.478;10.986;2023-01-01T01:09:11;26.92;;;17.33;;
70814;SDS011;58428;49.478;10.986;2023-01-01T01:11:36;30.08;;;17.50;;
70814;SDS011;58428;49.478;10.986;2023-01-01T01:14:02;27.10;;;16.23;;
70814;SDS011;58428;49.478;10.986;2023-01-01T01:16:28;23.73;;;14.48;;
70814;SDS011;58428;49.478;10.986;2023-01-01T01:18:57;23.30;;;14.13;;
70814;SDS011;58428;49.478;10.986;2023-01-01T01:21:24;21.70;;;12.00;;
70814;SDS011;58428;49.478;10.986;2023-01-01T01:23:52;22.40;;;13.05;;
70814;SDS011;58428;49.478;10.986;2023-01-01T01:26:22;20.35;;;12.00;;
70814;SDS011;58428;49.478;10.986;2023-01-01T01:28:50;20.33;;;11.32;;
70814;SDS011;58428;49.478;10.986;2023-01-01T01:31:18;19.88;;;11.20;;
70814;SDS011;58428;49.478;10.986;2023-01-01T01:33:45;18.10;;;10.15;;
70814;SDS011;58428;49.478;10.986;2023-01-01T01:38:36;16.48;;;9.48;;
70814;SDS011;58428;49.478;10.986;2023-01-01T01:41:04;16.15;;;9.40;;
70814;SDS011;58428;49.478;10.986;2023-01-01T01:46:20;20.58;;;11.65;;
70814;SDS011;58428;49.478;10.986;2023-01-01T01:48:52;18.45;;;10.75;;
70814;SDS011;58428;49.478;10.986;2023-01-01T01:51:21;18.02;;;11.02;;
70814;SDS011;58428;49.478;10.986;2023-01-01T01:53:53;30.70;;;16.15;;
70814;SDS011;58428;49.478;10.986;2023-01-01T01:56:25;19.42;;;11.63;;
70814;SDS011;58428;49.478;10.986;2023-01-01T01:59:04;16.02;;;8.48;;
70814;SDS011;58428;49.478;10.986;2023-01-01T02:01:30;15.70;;;8.63;;
70814;SDS011;58428;49.478;10.986;2023-01-01T02:03:59;14.38;;;7.88;;
70814;SDS011;58428;49.478;10.986;2023-01-01T02:06:28;13.68;;;8.10;;
70814;SDS011;58428;49.478;10.986;2023-01-01T02:08:55;13.57;;;7.63;;
70814;SDS011;58428;49.478;10.986;2023-01-01T02:11:24;13.75;;;7.68;;
70814;SDS011;58428;49.478;10.986;2023-01-01T02:13:50;15.55;;;8.35;;
70814;SDS011;58428;49.478;10.986;2023-01-01T02:16:22;14.23;;;7.57;;
70814;SDS011;58428;49.478;10.986;2023-01-01T02:30:06;15.25;;;8.07;;
70814;SDS011;58428;49.478;10.986;2023-01-01T02:32:40;13.05;;;7.32;;
70814;SDS011;58428;49.478;10.986;2023-01-01T02:40:48;12.75;;;7.05;;
70814;SDS011;58428;49.478;10.986;2023-01-01T02:43:17;11.98;;;7.07;;
70814;SDS011;58428;49.478;10.986;2023-01-01T02:45:44;12.27;;;7.00;;
70814;SDS011;58428;49.478;10.986;2023-01-01T02:54:16;13.18;;;7.03;;
70814;SDS011;58428;49.478;10.986;2023-01-01T03:05:39;12.68;;;6.55;;
70814;SDS011;58428;49.478;10.986;2023-01-01T03:08:29;14.93;;;7.32;;
70814;SDS011;58428;49.478;10.986;2023-01-01T03:11:05;12.00;;;6.63;;
70814;SDS011;58428;49.478;10.986;2023-01-01T03:19:44;12.40;;;6.80;;
70814;SDS011;58428;49.478;10.986;2023-01-01T03:22:13;12.30;;;6.88;;
70814;SDS011;58428;49.478;10.986;2023-01-01T03:24:44;14.88;;;6.85;;
70814;SDS011;58428;49.478;10.986;2023-01-01T03:27:16;13.70;;;7.40;;
70814;SDS011;58428;49.478;10.986;2023-01-01T03:29:56;13.75;;;6.93;;
70814;SDS011;58428;49.478;10.986;2023-01-01T03:35:16;11.70;;;6.43;;
70814;SDS011;58428;49.478;10.986;2023-01-01T03:37:49;13.82;;;7.18;;
70814;SDS011;58428;49.478;10.986;2023-01-01T03:40:18;13.25;;;6.90;;
70814;SDS011;58428;49.478;10.986;2023-01-01T03:42:50;13.55;;;6.93;;
70814;SDS011;58428;49.478;10.986;2023-01-01T03:45:25;15.45;;;7.10;;
70814;SDS011;58428;49.478;10.986;2023-01-01T03:47:55;13.20;;;6.85;;
70814;SDS011;58428;49.478;10.986;2023-01-01T03:50:21;13.23;;;6.75;;
70814;SDS011;58428;49.478;10.986;2023-01-01T03:53:02;15.07;;;7.28;;
70814;SDS011;58428;49.478;10.986;2023-01-01T03:55:35;13.70;;;7.50;;
70814;SDS011;58428;49.478;10.986;2023-01-01T03:58:19;14.35;;;7.50;;
70814;SDS011;58428;49.478;10.986;2023-01-01T04:00:56;14.60;;;7.45;;
70814;SDS011;58428;49.478;10.986;2023-01-01T04:03:29;11.70;;;6.53;;
70814;SDS011;58428;49.478;10.986;2023-01-01T04:05:57;11.43;;;6.38;;
70814;SDS011;58428;49.478;10.986;2023-01-01T04:08:23;12.52;;;6.90;;
70814;SDS011;58428;49.478;10.986;2023-01-01T04:10:50;11.60;;;6.90;;
70814;SDS011;58428;49.478;10.986;2023-01-01T04:13:21;11.90;;;6.53;;
70814;SDS011;58428;49.478;10.986;2023-01-01T04:15:46;11.43;;;6.40;;
70814;SDS011;58428;49.478;10.986;2023-01-01T04:18:13;10.80;;;5.95;;
70814;SDS011;58428;49.478;10.986;2023-01-01T04:20:38;11.38;;;6.45;;
70814;SDS011;58428;49.478;10.986;2023-01-01T04:23:04;10.90;;;5.82;;
70814;SDS011;58428;49.478;10.986;2023-01-01T04:25:30;9.57;;;5.55;;
70814;SDS011;58428;49.478;10.986;2023-01-01T04:27:56;11.77;;;6.13;;
70814;SDS011;58428;49.478;10.986;2023-01-01T04:30:23;10.70;;;5.70;;
70814;SDS011;58428;49.478;10.986;2023-01-01T04:32:53;10.43;;;5.57;;
70814;SDS011;58428;49.478;10.986;2023-01-01T04:35:20;11.10;;;5.75;;
70814;SDS011;58428;49.478;10.986;2023-01-01T04:40:12;9.73;;;5.13;;
70814;SDS011;58428;49.478;10.986;2023-01-01T04:42:38;11.48;;;5.18;;
70814;SDS011;58428;49.478;10.986;2023-01-01T04:45:04;10.15;;;5.18;;
70814;SDS011;58428;49.478;10.986;2023-01-01T04:47:29;9.43;;;5.00;;
70814;SDS011;58428;49.478;10.986;2023-01-01T04:49:55;10.23;;;5.10;;
70814;SDS011;58428;49.478;10.986;2023-01-01T04:52:20;9.18;;;4.93;;
70814;SDS011;58428;49.478;10.986;2023-01-01T04:54:47;7.75;;;4.38;;
70814;SDS011;58428;49.478;10.986;2023-01-01T04:57:14;9.60;;;4.60;;
70814;SDS011;58428;49.478;10.986;2023-01-01T04:59:40;10.35;;;5.15;;
70814;SDS011;58428;49.478;10.986;2023-01-01T05:02:05;9.82;;;5.15;;
70814;SDS011;58428;49.478;10.986;2023-01-01T05:04:31;8.85;;;4.93;;
70814;SDS011;58428;49.478;10.986;2023-01-01T05:06:56;12.50;;;4.93;;
70814;SDS011;58428;49.478;10.986;2023-01-01T05:09:22;9.38;;;4.95;;
70814;SDS011;58428;49.478;10.986;2023-01-01T05:11:50;9.27;;;5.03;;
70814;SDS011;58428;49.478;10.986;2023-01-01T05:14:16;9.23;;;5.13;;
70814;SDS011;58428;49.478;10.986;2023-01-01T05:16:42;11.57;;;5.45;;
70814;SDS011;58428;49.478;10.986;2023-01-01T05:19:08;10.82;;;5.82;;
70814;SDS011;58428;49.478;10.986;2023-01-01T05:21:36;9.80;;;5.07;;
70814;SDS011;58428;49.478;10.986;2023-01-01T05:24:06;11.57;;;5.82;;
70814;SDS011;58428;49.478;10.986;2023-01-01T05:26:39;11.00;;;6.43;;
70814;SDS011;58428;49.478;10.986;2023-01-01T05:29:12;12.15;;;6.53;;
70814;SDS011;58428;49.478;10.986;2023-01-01T05:31:38;12.60;;;5.82;;
70814;SDS011;58428;49.478;10.986;2023-01-01T05:34:03;10.65;;;5.85;;
70814;SDS011;58428;49.478;10.986;2023-01-01T05:36:30;8.77;;;4.82;;
70814;SDS011;58428;49.478;10.986;2023-01-01T05:39:02;9.95;;;5.03;;
70814;SDS011;58428;49.478;10.986;2023-01-01T05:41:29;10.80;;;4.57;;
70814;SDS011;58428;49.478;10.986;2023-01-01T05:43:59;8.43;;;4.72;;
70814;SDS011;58428;49.478;10.986;2023-01-01T05:46:31;9.07;;;4.60;;
70814;SDS011;58428;49.478;10.986;2023-01-01T05:49:17;7.82;;;4.25;;
70814;SDS011;58428;49.478;10.986;2023-01-01T05:51:43;9.02;;;4.80;;
70814;SDS011;58428;49.478;10.986;2023-01-01T05:54:08;9.05;;;4.30;;
70814;SDS011;58428;49.478;10.986;2023-01-01T05:56:35;8.63;;;4.47;;
70814;SDS011;58428;49.478;10.986;2023-01-01T05:59:02;11.43;;;4.25;;
70814;SDS011;58428;49.478;10.986;2023-01-01T06:01:28;10.27;;;4.30;;
70814;SDS011;58428;49.478;10.986;2023-01-01T06:03:58;9.48;;;4.60;;
70814;SDS011;58428;49.478;10.986;2023-01-01T06:06:27;12.02;;;4.80;;
70814;SDS011;58428;49.478;10.986;2023-01-01T06:08:58;8.88;;;4.28;;
70814;SDS011;58428;49.478;10.986;2023-01-01T06:11:29;7.47;;;3.90;;
70814;SDS011;58428;49.478;10.986;2023-01-01T06:13:57;8.88;;;4.13;;
70814;SDS011;58428;49.478;10.986;2023-01-01T06:16:23;10.32;;;4.30;;
70814;SDS011;58428;49.478;10.986;2023-01-01T06:18:51;8.07;;;4.15;;
70814;SDS011;58428;49.478;10.986;2023-01-01T06:21:21;8.90;;;4.50;;
70814;SDS011;58428;49.478;10.986;2023-01-01T06:23:49;8.90;;;4.00;;
70814;SDS011;58428;49.478;10.986;2023-01-01T06:26:18;8.32;;;4.20;;
70814;SDS011;58428;49.478;10.986;2023-01-01T06:28:46;9.13;;;4.28;;
70814;SDS011;58428;49.478;10.986;2023-01-01T06:31:14;10.38;;;4.60;;
70814;SDS011;58428;49.478;10.986;2023-01-01T06:33:41;8.35;;;4.30;;
70814;SDS011;58428;49.478;10.986;2023-01-01T06:36:08;8.90;;;4.80;;
70814;SDS011;58428;49.478;10.986;2023-01-01T06:38:36;9.40;;;4.20;;
70814;SDS011;58428;49.478;10.986;2023-01-01T06:41:04;9.85;;;4.50;;
70814;SDS011;58428;49.478;10.986;2023-01-01T06:43:32;9.48;;;4.82;;
70814;SDS011;58428;49.478;10.986;2023-01-01T06:48:32;10.25;;;5.20;;
70814;SDS011;58428;49.478;10.986;2023-01-01T06:51:03;11.10;;;5.07;;
70814;SDS011;58428;49.478;10.986;2023-01-01T06:53:39;10.70;;;5.05;;
70814;SDS011;58428;49.478;10.986;2023-01-01T06:56:07;10.15;;;5.20;;
70814;SDS011;58428;49.478;10.986;2023-01-01T06:58:32;13.30;;;5.80;;
70814;SDS011;58428;49.478;10.986;2023-01-01T07:01:18;12.25;;;5.70;;
70814;SDS011;58428;49.478;10.986;2023-01-01T07:03:51;12.07;;;5.82;;
70814;SDS011;58428;49.478;10.986;2023-01-01T07:06:20;11.85;;;5.95;;
70814;SDS011;58428;49.478;10.986;2023-01-01T07:08:50;12.77;;;6.32;;
70814;SDS011;58428;49.478;10.986;2023-01-01T07:11:17;15.63;;;7.10;;
70814;SDS011;58428;49.478;10.986;2023-01-01T07:13:43;10.98;;;5.78;;
70814;SDS011;58428;49.478;10.986;2023-01-01T07:16:09;16.25;;;6.40;;
70814;SDS011;58428;49.478;10.986;2023-01-01T07:18:34;12.02;;;6.15;;
70814;SDS011;58428;49.478;10.986;2023-01-01T07:21:03;11.75;;;6.70;;
70814;SDS011;58428;49.478;10.986;2023-01-01T07:23:30;17.17;;;7.13;;
70814;SDS011;58428;49.478;10.986;2023-01-01T07:25:58;15.32;;;7.30;;
70814;SDS011;58428;49.478;10.986;2023-01-01T07:28:25;12.63;;;6.78;;
70814;SDS011;58428;49.478;10.986;2023-01-01T07:30:51;14.45;;;6.97;;
70814;SDS011;58428;49.478;10.986;2023-01-01T07:33:21;12.50;;;6.20;;
70814;SDS011;58428;49.478;10.986;2023-01-01T07:35:48;13.38;;;6.90;;
70814;SDS011;58428;49.478;10.986;2023-01-01T07:38:14;14.35;;;7.43;;
70814;SDS011;58428;49.478;10.986;2023-01-01T07:40:40;13.00;;;6.60;;
70814;SDS011;58428;49.478;10.986;2023-01-01T07:43:06;12.10;;;6.50;;
70814;SDS011;58428;49.478;10.986;2023-01-01T07:45:32;13.70;;;7.03;;
70814;SDS011;58428;49.478;10.986;2023-01-01T07:47:59;15.40;;;7.70;;
70814;SDS011;58428;49.478;10.986;2023-01-01T07:50:27;13.75;;;6.40;;
70814;SDS011;58428;49.478;10.986;2023-01-01T07:52:54;13.25;;;6.35;;
70814;SDS011;58428;49.478;10.986;2023-01-01T07:55:20;12.77;;;7.05;;
70814;SDS011;58428;49.478;10.986;2023-01-01T07:57:45;13.73;;;7.00;;
70814;SDS011;58428;49.478;10.986;2023-01-01T08:00:13;11.27;;;6.18;;
70814;SDS011;58428;49.478;10.986;2023-01-01T08:02:41;13.07;;;6.55;;
70814;SDS011;58428;49.478;10.986;2023-01-01T08:05:06;13.65;;;6.40;;
70814;SDS011;58428;49.478;10.986;2023-01-01T08:07:32;14.00;;;6.78;;
70814;SDS011;58428;49.478;10.986;2023-01-01T08:09:59;12.82;;;6.30;;
70814;SDS011;58428;49.478;10.986;2023-01-01T08:12:25;13.27;;;6.32;;
70814;SDS011;58428;49.478;10.986;2023-01-01T08:14:51;11.88;;;6.10;;
70814;SDS011;58428;49.478;10.986;2023-01-01T08:17:16;11.75;;;6.00;;
70814;SDS011;58428;49.478;10.986;2023-01-01T08:19:41;11.45;;;6.07;;
70814;SDS011;58428;49.478;10.986;2023-01-01T08:22:08;13.23;;;6.53;;
70814;SDS011;58428;49.478;10.986;2023-01-01T08:24:35;11.93;;;6.15;;
70814;SDS011;58428;49.478;10.986;2023-01-01T08:27:01;13.18;;;6.60;;
70814;SDS011;58428;49.478;10.986;2023-01-01T08:29:26;12.97;;;6.30;;
70814;SDS011;58428;49.478;10.986;2023-01-01T08:31:56;11.18;;;5.93;;
70814;SDS011;58428;49.478;10.986;2023-01-01T08:34:22;12.45;;;6.30;;
70814;SDS011;58428;49.478;10.986;2023-01-01T08:36:47;14.80;;;6.22;;
70814;SDS011;58428;49.478;10.986;2023-01-01T08:39:12;11.57;;;6.05;;
70814;SDS011;58428;49.478;10.986;2023-01-01T08:41:38;13.40;;;6.53;;
70814;SDS011;58428;49.478;10.986;2023-01-01T08:44:03;11.07;;;5.68;;
70814;SDS011;58428;49.478;10.986;2023-01-01T08:46:29;12.70;;;6.18;;
70814;SDS011;58428;49.478;10.986;2023-01-01T08:48:54;11.30;;;5.40;;
70814;SDS011;58428;49.478;10.986;2023-01-01T08:51:20;10.90;;;5.38;;
70814;SDS011;58428;49.478;10.986;2023-01-01T08:53:47;11.50;;;5.65;;
70814;SDS011;58428;49.478;10.986;2023-01-01T08:56:13;11.50;;;5.60;;
70814;SDS011;58428;49.478;10.986;2023-01-01T08:58:40;11.77;;;5.80;;
70814;SDS011;58428;49.478;10.986;2023-01-01T09:03:34;11.30;;;5.15;;
70814;SDS011;58428;49.478;10.986;2023-01-01T09:06:00;12.82;;;6.50;;
70814;SDS011;58428;49.478;10.986;2023-01-01T09:08:26;13.40;;;5.90;;
70814;SDS011;58428;49.478;10.986;2023-01-01T09:10:51;10.48;;;5.57;;
70814;SDS011;58428;49.478;10.986;2023-01-01T09:13:21;11.20;;;5.25;;
70814;SDS011;58428;49.478;10.986;2023-01-01T09:15:48;10.38;;;4.88;;
70814;SDS011;58428;49.478;10.986;2023-01-01T09:18:15;9.98;;;4.90;;
70814;SDS011;58428;49.478;10.986;2023-01-01T09:20:40;9.65;;;5.13;;
70814;SDS011;58428;49.478;10.986;2023-01-01T09:23:06;9.95;;;5.13;;
70814;SDS011;58428;49.478;10.986;2023-01-01T09:25:32;9.98;;;4.90;;
70814;SDS011;58428;49.478;10.986;2023-01-01T09:28:03;9.88;;;5.00;;
70814;SDS011;58428;49.478;10.986;2023-01-01T09:30:34;9.65;;;4.70;;
70814;SDS011;58428;49.478;10.986;2023-01-01T09:33:04;8.65;;;4.80;;
70814;SDS011;58428;49.478;10.986;2023-01-01T09:35:31;9.30;;;4.45;;
70814;SDS011;58428;49.478;10.986;2023-01-01T09:38:02;11.23;;;5.05;;
70814;SDS011;58428;49.478;10.986;2023-01-01T09:43:40;9.48;;;4.68;;
70814;SDS011;58428;49.478;10.986;2023-01-01T09:46:25;9.38;;;4.57;;
70814;SDS011;58428;49.478;10.986;2023-01-01T09:49:02;9.23;;;4.60;;
70814;SDS011;58428;49.478;10.986;2023-01-01T09:51:34;11.05;;;5.13;;
70814;SDS011;58428;49.478;10.986;2023-01-01T09:56:48;8.38;;;4.47;;
70814;SDS011;58428;49.478;10.986;2023-01-01T09:59:19;8.38;;;4.47;;
70814;SDS011;58428;49.478;10.986;2023-01-01T10:04:38;8.57;;;4.60;;
70814;SDS011;58428;49.478;10.986;2023-01-01T10:13:02;9.55;;;4.85;;
70814;SDS011;58428;49.478;10.986;2023-01-01T10:16:53;10.60;;;4.05;;
70814;SDS011;58428;49.478;10.986;2023-01-01T10:19:21;8.00;;;4.43;;
70814;SDS011;58428;49.478;10.986;2023-01-01T10:21:54;9.70;;;4.30;;
70814;SDS011;58428;49.478;10.986;2023-01-01T10:24:33;9.18;;;4.40;;
70814;SDS011;58428;49.478;10.986;2023-01-01T10:27:23;8.02;;;3.95;;
70814;SDS011;58428;49.478;10.986;2023-01-01T10:30:01;9.52;;;4.22;;
70814;SDS011;58428;49.478;10.986;2023-01-01T10:32:35;9.50;;;4.28;;
70814;SDS011;58428;49.478;10.986;2023-01-01T10:35:09;7.90;;;3.90;;
70814;SDS011;58428;49.478;10.986;2023-01-01T10:37:39;7.45;;;4.05;;
70814;SDS011;58428;49.478;10.986;2023-01-01T10:40:27;8.00;;;4.35;;
70814;SDS011;58428;49.478;10.986;2023-01-01T10:42:54;10.15;;;4.90;;
70814;SDS011;58428;49.478;10.986;2023-01-01T10:45:27;9.15;;;4.15;;
70814;SDS011;58428;49.478;10.986;2023-01-01T10:48:12;7.53;;;3.65;;
70814;SDS011;58428;49.478;10.986;2023-01-01T10:50:41;7.35;;;3.75;;
70814;SDS011;58428;49.478;10.986;2023-01-01T10:53:25;7.65;;;3.90;;
70814;SDS011;58428;49.478;10.986;2023-01-01T11:04:31;7.85;;;3.85;;
70814;SDS011;58428;49.478;10.986;2023-01-01T11:06:58;7.82;;;3.83;;
70814;SDS011;58428;49.478;10.986;2023-01-01T11:09:25;9.70;;;4.30;;
70814;SDS011;58428;49.478;10.986;2023-01-01T11:11:56;7.32;;;3.60;;
70814;SDS011;58428;49.478;10.986;2023-01-01T11:16:57;8.75;;;4.18;;
70814;SDS011;58428;49.478;10.986;2023-01-01T11:19:24;8.18;;;3.92;;
70814;SDS011;58428;49.478;10.986;2023-01-01T11:21:57;6.82;;;3.53;;
70814;SDS011;58428;49.478;10.986;2023-01-01T11:26:52;8.90;;;3.85;;
70814;SDS011;58428;49.478;10.986;2023-01-01T11:29:19;8.23;;;4.50;;
70814;SDS011;58428;49.478;10.986;2023-01-01T11:31:56;8.13;;;4.00;;
70814;SDS011;58428;49.478;10.986;2023-01-01T11:34:37;8.65;;;3.97;;
70814;SDS011;58428;49.478;10.986;2023-01-01T11:39:33;6.82;;;3.63;;
70814;SDS011;58428;49.478;10.986;2023-01-01T11:42:01;7.07;;;3.90;;
70814;SDS011;58428;49.478;10.986;2023-01-01T11:44:37;8.60;;;3.33;;
70814;SDS011;58428;49.478;10.986;2023-01-01T11:50:27;7.95;;;3.42;;
70814;SDS011;58428;49.478;10.986;2023-01-01T11:58:51;13.07;;;5.95;;
70814;SDS011;58428;49.478;10.986;2023-01-01T12:03:53;11.75;;;5.20;;
70814;SDS011;58428;49.478;10.986;2023-01-01T12:06:28;10.27;;;4.57;;
70814;SDS011;58428;49.478;10.986;2023-01-01T12:09:04;8.27;;;4.10;;
70814;SDS011;58428;49.478;10.986;2023-01-01T12:11:33;7.13;;;3.15;;
70814;SDS011;58428;49.478;10.986;2023-01-01T12:16:51;7.72;;;3.45;;
70814;SDS011;58428;49.478;10.986;2023-01-01T12:19:35;6.50;;;3.30;;
70814;SDS011;58428;49.478;10.986;2023-01-01T12:22:14;7.60;;;3.38;;
70814;SDS011;58428;49.478;10.986;2023-01-01T12:24:41;7.55;;;3.55;;
70814;SDS011;58428;49.478;10.986;2023-01-01T12:38:43;8.68;;;4.00;;
70814;SDS011;58428;49.478;10.986;2023-01-01T12:44:29;8.30;;;3.72;;
70814;SDS011;58428;49.478;10.986;2023-01-01T12:55:41;7.93;;;3.53;;
70814;SDS011;58428;49.478;10.986;2023-01-01T12:58:14;6.72;;;3.03;;
70814;SDS011;58428;49.478;10.986;2023-01-01T13:03:46;8.95;;;3.20;;
70814;SDS011;58428;49.478;10.986;2023-01-01T13:06:16;6.65;;;3.10;;
70814;SDS011;58428;49.478;10.986;2023-01-01T13:08:46;9.13;;;3.20;;
70814;SDS011;58428;49.478;10.986;2023-01-01T13:11:21;7.88;;;3.28;;
70814;SDS011;58428;49.478;10.986;2023-01-01T13:13:51;5.80;;;2.85;;
70814;SDS011;58428;49.478;10.986;2023-01-01T13:16:31;7.45;;;3.33;;
70814;SDS011;58428;49.478;10.986;2023-01-01T13:19:46;6.00;;;2.83;;
70814;SDS011;58428;49.478;10.986;2023-01-01T13:25:22;8.00;;;3.13;;
70814;SDS011;58428;49.478;10.986;2023-01-01T13:33:11;8.35;;;3.88;;
70814;SDS011;58428;49.478;10.986;2023-01-01T13:35:44;8.68;;;3.80;;
70814;SDS011;58428;49.478;10.986;2023-01-01T13:44:45;7.78;;;3.55;;
70814;SDS011;58428;49.478;10.986;2023-01-01T13:47:16;8.80;;;3.53;;
70814;SDS011;58428;49.478;10.986;2023-01-01T13:55:32;6.97;;;3.40;;
70814;SDS011;58428;49.478;10.986;2023-01-01T14:07:12;8.02;;;3.80;;
70814;SDS011;58428;49.478;10.986;2023-01-01T14:10:17;8.15;;;3.50;;
70814;SDS011;58428;49.478;10.986;2023-01-01T14:12:55;7.32;;;3.30;;
70814;SDS011;58428;49.478;10.986;2023-01-01T14:15:37;8.05;;;3.85;;
70814;SDS011;58428;49.478;10.986;2023-01-01T14:18:11;9.70;;;4.72;;
70814;SDS011;58428;49.478;10.986;2023-01-01T14:20:46;9.05;;;4.95;;
70814;SDS011;58428;49.478;10.986;2023-01-01T14:23:18;9.82;;;4.70;;
70814;SDS011;58428;49.478;10.986;2023-01-01T14:25:50;7.60;;;4.03;;
70814;SDS011;58428;49.478;10.986;2023-01-01T14:30:46;7.43;;;3.58;;
70814;SDS011;58428;49.478;10.986;2023-01-01T14:35:53;8.38;;;3.85;;
70814;SDS011;58428;49.478;10.986;2023-01-01T14:38:23;8.48;;;4.10;;
70814;SDS011;58428;49.478;10.986;2023-01-01T14:43:38;9.07;;;4.07;;
70814;SDS011;58428;49.478;10.986;2023-01-01T14:46:05;9.68;;;4.38;;
70814;SDS011;58428;49.478;10.986;2023-01-01T14:48:32;9.05;;;4.40;;
70814;SDS011;58428;49.478;10.986;2023-01-01T14:50:59;7.07;;;3.65;;
70814;SDS011;58428;49.478;10.986;2023-01-01T14:56:32;7.93;;;3.58;;
70814;SDS011;58428;49.478;10.986;2023-01-01T15:02:01;8.55;;;3.88;;
70814;SDS011;58428;49.478;10.986;2023-01-01T15:04:27;10.02;;;4.05;;
70814;SDS011;58428;49.478;10.986;2023-01-01T15:06:54;8.77;;;4.00;;
70814;SDS011;58428;49.478;10.986;2023-01-01T15:09:21;8.57;;;4.05;;
70814;SDS011;58428;49.478;10.986;2023-01-01T15:11:49;9.05;;;4.40;;
70814;SDS011;58428;49.478;10.986;2023-01-01T15:14:35;8.82;;;4.00;;
70814;SDS011;58428;49.478;10.986;2023-01-01T15:19:33;9.80;;;4.32;;
70814;SDS011;58428;49.478;10.986;2023-01-01T15:22:10;10.00;;;4.70;;
70814;SDS011;58428;49.478;10.986;2023-01-01T15:24:59;12.48;;;5.10;;
70814;SDS011;58428;49.478;10.986;2023-01-01T15:27:37;11.07;;;4.90;;
70814;SDS011;58428;49.478;10.986;2023-01-01T15:30:05;9.75;;;4.80;;
70814;SDS011;58428;49.478;10.986;2023-01-01T15:32:36;11.25;;;5.35;;
70814;SDS011;58428;49.478;10.986;2023-01-01T15:35:17;12.95;;;5.60;;
70814;SDS011;58428;49.478;10.986;2023-01-01T15:40:42;13.10;;;5.63;;
70814;SDS011;58428;49.478;10.986;2023-01-01T15:43:26;10.98;;;5.45;;
70814;SDS011;58428;49.478;10.986;2023-01-01T15:48:49;10.38;;;4.70;;
70814;SDS011;58428;49.478;10.986;2023-01-01T15:51:23;9.65;;;5.10;;
70814;SDS011;58428;49.478;10.986;2023-01-01T15:56:26;13.13;;;5.55;;
70814;SDS011;58428;49.478;10.986;2023-01-01T15:59:03;10.35;;;5.30;;
70814;SDS011;58428;49.478;10.986;2023-01-01T16:01:32;11.60;;;5.00;;
70814;SDS011;58428;49.478;10.986;2023-01-01T16:04:07;11.88;;;5.22;;
70814;SDS011;58428;49.478;10.986;2023-01-01T16:06:45;13.02;;;5.45;;
70814;SDS011;58428;49.478;10.986;2023-01-01T16:09:12;12.20;;;6.30;;
70814;SDS011;58428;49.478;10.986;2023-01-01T16:11:40;12.45;;;6.40;;
70814;SDS011;58428;49.478;10.986;2023-01-01T16:14:05;12.25;;;5.65;;
70814;SDS011;58428;49.478;10.986;2023-01-01T16:16:31;11.05;;;5.80;;
70814;SDS011;58428;49.478;10.986;2023-01-01T16:18:57;12.35;;;6.28;;
70814;SDS011;58428;49.478;10.986;2023-01-01T16:21:23;11.23;;;5.93;;
70814;SDS011;58428;49.478;10.986;2023-01-01T16:23:52;12.45;;;5.85;;
70814;SDS011;58428;49.478;10.986;2023-01-01T16:26:19;12.75;;;5.65;;
70814;SDS011;58428;49.478;10.986;2023-01-01T16:28:44;13.93;;;6.05;;
70814;SDS011;58428;49.478;10.986;2023-01-01T16:31:23;10.18;;;5.25;;
70814;SDS011;58428;49.478;10.986;2023-01-01T16:33:52;11.15;;;5.82;;
70814;SDS011;58428;49.478;10.986;2023-01-01T16:36:21;14.43;;;6.25;;
70814;SDS011;58428;49.478;10.986;2023-01-01T16:38:47;13.07;;;5.70;;
70814;SDS011;58428;49.478;10.986;2023-01-01T16:41:13;13.65;;;6.60;;
70814;SDS011;58428;49.478;10.986;2023-01-01T16:43:41;20.65;;;9.82;;
70814;SDS011;58428;49.478;10.986;2023-01-01T16:46:08;20.75;;;9.77;;
70814;SDS011;58428;49.478;10.986;2023-01-01T16:48:35;17.70;;;9.23;;
70814;SDS011;58428;49.478;10.986;2023-01-01T16:51:01;16.17;;;8.18;;
70814;SDS011;58428;49.478;10.986;2023-01-01T16:53:27;16.83;;;8.55;;
70814;SDS011;58428;49.478;10.986;2023-01-01T16:55:54;16.70;;;8.38;;
70814;SDS011;58428;49.478;10.986;2023-01-01T16:58:22;17.95;;;9.30;;
70814;SDS011;58428;49.478;10.986;2023-01-01T17:00:48;19.80;;;10.45;;
70814;SDS011;58428;49.478;10.986;2023-01-01T17:03:14;26.05;;;16.38;;
70814;SDS011;58428;49.478;10.986;2023-01-01T17:05:40;26.27;;;15.52;;
70814;SDS011;58428;49.478;10.986;2023-01-01T17:08:07;21.67;;;13.20;;
70814;SDS011;58428;49.478;10.986;2023-01-01T17:10:32;20.63;;;11.50;;
70814;SDS011;58428;49.478;10.986;2023-01-01T17:12:58;20.52;;;11.25;;
70814;SDS011;58428;49.478;10.986;2023-01-01T17:15:29;22.83;;;11.38;;
70814;SDS011;58428;49.478;10.986;2023-01-01T17:17:55;17.25;;;9.98;;
70814;SDS011;58428;49.478;10.986;2023-01-01T17:20:21;19.83;;;10.23;;
70814;SDS011;58428;49.478;10.986;2023-01-01T17:22:47;20.88;;;9.23;;
70814;SDS011;58428;49.478;10.986;2023-01-01T17:25:12;17.13;;;8.88;;
70814;SDS011;58428;49.478;10.986;2023-01-01T17:27:42;16.67;;;8.10;;
70814;SDS011;58428;49.478;10.986;2023-01-01T17:30:09;16.00;;;7.40;;
70814;SDS011;58428;49.478;10.986;2023-01-01T17:32:37;13.85;;;7.50;;
70814;SDS011;58428;49.478;10.986;2023-01-01T17:35:03;16.42;;;8.27;;
70814;SDS011;58428;49.478;10.986;2023-01-01T17:37:29;15.82;;;8.27;;
70814;SDS011;58428;49.478;10.986;2023-01-01T17:39:55;17.42;;;8.93;;